sensor_id;sensor_type;location;lat;lon;timestamp;temperature;humidity
44607;DHT22;30315;46.072;14.474;2023-10-19T00:02:09;12.50;89.80
44607;DHT22;30315;46.072;14.474;2023-10-19T00:04:42;12.50;89.20
44607;DHT22;30315;46.072;14.474;2023-10-19T00:07:09;12.50;89.00
44607;DHT22;30315;46.072;14.474;2023-10-19T00:09:43;12.40;89.00
44607;DHT22;30315;46.072;14.474;2023-10-19T00:12:13;12.50;89.00
44607;DHT22;30315;46.072;14.474;2023-10-19T00:14:42;12.50;89.20
44607;DHT22;30315;46.072;14.474;2023-10-19T00:17:09;12.40;89.10
44607;DHT22;30315;46.072;14.474;2023-10-19T00:19:38;12.40;89.30
44607;DHT22;30315;46.072;14.474;2023-10-19T00:22:25;12.40;89.30
44607;DHT22;30315;46.072;14.474;2023-10-19T00:24:52;12.50;89.60
44607;DHT22;30315;46.072;14.474;2023-10-19T00:27:19;12.50;89.70
44607;DHT22;30315;46.072;14.474;2023-10-19T00:29:49;12.40;89.60
44607;DHT22;30315;46.072;14.474;2023-10-19T00:32:16;12.50;89.70
44607;DHT22;30315;46.072;14.474;2023-10-19T00:34:45;12.50;89.60
44607;DHT22;30315;46.072;14.474;2023-10-19T00:37:19;12.40;90.10
44607;DHT22;30315;46.072;14.474;2023-10-19T00:39:54;12.50;89.90
44607;DHT22;30315;46.072;14.474;2023-10-19T00:42:23;12.60;90.00
44607;DHT22;30315;46.072;14.474;2023-10-19T00:44:52;12.50;90.00
44607;DHT22;30315;46.072;14.474;2023-10-19T00:47:27;12.50;90.00
44607;DHT22;30315;46.072;14.474;2023-10-19T00:50:03;12.50;90.00
44607;DHT22;30315;46.072;14.474;2023-10-19T00:52:31;12.50;90.10
44607;DHT22;30315;46.072;14.474;2023-10-19T00:54:59;12.50;90.00
44607;DHT22;30315;46.072;14.474;2023-10-19T00:57:26;12.50;90.00
44607;DHT22;30315;46.072;14.474;2023-10-19T01:00:16;12.50;90.00
44607;DHT22;30315;46.072;14.474;2023-10-19T01:03:00;12.50;90.00
44607;DHT22;30315;46.072;14.474;2023-10-19T01:05:28;12.50;90.00
44607;DHT22;30315;46.072;14.474;2023-10-19T01:08:04;12.50;90.00
44607;DHT22;30315;46.072;14.474;2023-10-19T01:10:51;12.50;90.10
44607;DHT22;30315;46.072;14.474;2023-10-19T01:13:19;12.50;90.20
44607;DHT22;30315;46.072;14.474;2023-10-19T01:15:54;12.50;90.20
44607;DHT22;30315;46.072;14.474;2023-10-19T01:18:23;12.50;90.20
44607;DHT22;30315;46.072;14.474;2023-10-19T01:20:56;12.60;90.20
44607;DHT22;30315;46.072;14.474;2023-10-19T01:23:24;12.60;90.20
44607;DHT22;30315;46.072;14.474;2023-10-19T01:25:59;12.60;90.20
44607;DHT22;30315;46.072;14.474;2023-10-19T01:28:32;12.60;90.20
44607;DHT22;30315;46.072;14.474;2023-10-19T01:31:18;12.60;90.30
44607;DHT22;30315;46.072;14.474;2023-10-19T01:33:58;12.60;90.30
44607;DHT22;30315;46.072;14.474;2023-10-19T01:36:28;12.60;90.30
44607;DHT22;30315;46.072;14.474;2023-10-19T01:38:59;12.60;90.30
44607;DHT22;30315;46.072;14.474;2023-10-19T01:41:36;12.60;90.30
44607;DHT22;30315;46.072;14.474;2023-10-19T01:44:03;12.50;90.30
44607;DHT22;30315;46.072;14.474;2023-10-19T01:46:35;12.50;90.30
44607;DHT22;30315;46.072;14.474;2023-10-19T01:49:04;12.50;90.60
44607;DHT22;30315;46.072;14.474;2023-10-19T01:51:33;12.50;90.30
44607;DHT22;30315;46.072;14.474;2023-10-19T01:54:06;12.50;90.40
44607;DHT22;30315;46.072;14.474;2023-10-19T01:56:34;12.50;90.60
44607;DHT22;30315;46.072;14.474;2023-10-19T01:59:04;12.60;90.20
44607;DHT22;30315;46.072;14.474;2023-10-19T02:01:31;12.50;90.20
44607;DHT22;30315;46.072;14.474;2023-10-19T02:04:03;12.60;90.30
44607;DHT22;30315;46.072;14.474;2023-10-19T02:06:34;12.50;90.30
44607;DHT22;30315;46.072;14.474;2023-10-19T02:09:06;12.50;90.30
44607;DHT22;30315;46.072;14.474;2023-10-19T02:11:45;12.50;90.30
44607;DHT22;30315;46.072;14.474;2023-10-19T02:14:16;12.50;90.30
44607;DHT22;30315;46.072;14.474;2023-10-19T02:16:47;12.60;90.40
44607;DHT22;30315;46.072;14.474;2023-10-19T02:19:14;12.60;90.40
44607;DHT22;30315;46.072;14.474;2023-10-19T02:21:41;12.50;90.40
44607;DHT22;30315;46.072;14.474;2023-10-19T02:27:05;12.60;90.50
44607;DHT22;30315;46.072;14.474;2023-10-19T02:29:37;12.60;90.40
44607;DHT22;30315;46.072;14.474;2023-10-19T02:32:05;12.60;90.40
44607;DHT22;30315;46.072;14.474;2023-10-19T02:34:33;12.50;90.40
44607;DHT22;30315;46.072;14.474;2023-10-19T02:37:01;12.60;90.50
44607;DHT22;30315;46.072;14.474;2023-10-19T02:39:29;12.60;90.50
44607;DHT22;30315;46.072;14.474;2023-10-19T02:41:56;12.60;90.50
44607;DHT22;30315;46.072;14.474;2023-10-19T02:44:23;12.50;90.50
44607;DHT22;30315;46.072;14.474;2023-10-19T02:46:54;12.60;90.60
44607;DHT22;30315;46.072;14.474;2023-10-19T02:49:27;12.60;90.70
44607;DHT22;30315;46.072;14.474;2023-10-19T02:51:56;12.60;90.60
44607;DHT22;30315;46.072;14.474;2023-10-19T02:54:31;12.60;90.60
44607;DHT22;30315;46.072;14.474;2023-10-19T02:57:02;12.60;90.60
44607;DHT22;30315;46.072;14.474;2023-10-19T02:59:34;12.70;90.60
44607;DHT22;30315;46.072;14.474;2023-10-19T03:02:01;12.60;90.60
44607;DHT22;30315;46.072;14.474;2023-10-19T03:04:44;12.60;90.60
44607;DHT22;30315;46.072;14.474;2023-10-19T03:07:13;12.60;90.70
44607;DHT22;30315;46.072;14.474;2023-10-19T03:09:40;12.60;90.70
44607;DHT22;30315;46.072;14.474;2023-10-19T03:12:16;12.70;90.80
44607;DHT22;30315;46.072;14.474;2023-10-19T03:14:44;12.60;90.70
44607;DHT22;30315;46.072;14.474;2023-10-19T03:17:15;12.60;90.80
44607;DHT22;30315;46.072;14.474;2023-10-19T03:19:43;12.60;90.80
44607;DHT22;30315;46.072;14.474;2023-10-19T03:22:10;12.60;90.80
44607;DHT22;30315;46.072;14.474;2023-10-19T03:24:38;12.60;90.80
44607;DHT22;30315;46.072;14.474;2023-10-19T03:27:12;12.70;90.90
44607;DHT22;30315;46.072;14.474;2023-10-19T03:29:44;12.60;90.80
44607;DHT22;30315;46.072;14.474;2023-10-19T03:32:41;12.60;90.80
44607;DHT22;30315;46.072;14.474;2023-10-19T03:35:08;12.60;90.80
44607;DHT22;30315;46.072;14.474;2023-10-19T03:37:35;12.60;90.90
44607;DHT22;30315;46.072;14.474;2023-10-19T03:40:03;12.70;91.00
44607;DHT22;30315;46.072;14.474;2023-10-19T03:42:34;12.70;91.10
44607;DHT22;30315;46.072;14.474;2023-10-19T03:45:08;12.60;91.30
44607;DHT22;30315;46.072;14.474;2023-10-19T03:47:39;12.70;91.00
44607;DHT22;30315;46.072;14.474;2023-10-19T03:50:10;12.70;91.00
44607;DHT22;30315;46.072;14.474;2023-10-19T03:52:50;12.70;91.00
44607;DHT22;30315;46.072;14.474;2023-10-19T03:55:18;12.70;91.10
44607;DHT22;30315;46.072;14.474;2023-10-19T03:57:46;12.60;91.10
44607;DHT22;30315;46.072;14.474;2023-10-19T04:00:14;12.70;91.20
44607;DHT22;30315;46.072;14.474;2023-10-19T04:02:45;12.70;91.20
44607;DHT22;30315;46.072;14.474;2023-10-19T04:05:13;12.70;91.30
44607;DHT22;30315;46.072;14.474;2023-10-19T04:07:49;12.70;91.30
44607;DHT22;30315;46.072;14.474;2023-10-19T04:10:24;12.70;91.40
44607;DHT22;30315;46.072;14.474;2023-10-19T04:13:01;12.70;91.30
44607;DHT22;30315;46.072;14.474;2023-10-19T04:15:30;12.70;91.30
44607;DHT22;30315;46.072;14.474;2023-10-19T04:18:01;12.70;91.30
44607;DHT22;30315;46.072;14.474;2023-10-19T04:20:28;12.70;91.30
44607;DHT22;30315;46.072;14.474;2023-10-19T04:23:15;12.70;91.40
44607;DHT22;30315;46.072;14.474;2023-10-19T04:25:43;12.70;91.30
44607;DHT22;30315;46.072;14.474;2023-10-19T04:28:13;12.70;91.40
44607;DHT22;30315;46.072;14.474;2023-10-19T04:30:40;12.70;91.40
44607;DHT22;30315;46.072;14.474;2023-10-19T04:33:08;12.70;91.30
44607;DHT22;30315;46.072;14.474;2023-10-19T04:35:38;12.70;91.40
44607;DHT22;30315;46.072;14.474;2023-10-19T04:38:08;12.70;91.30
44607;DHT22;30315;46.072;14.474;2023-10-19T04:40:35;12.70;91.30
44607;DHT22;30315;46.072;14.474;2023-10-19T04:43:03;12.70;91.40
44607;DHT22;30315;46.072;14.474;2023-10-19T04:45:33;12.70;91.40
44607;DHT22;30315;46.072;14.474;2023-10-19T04:48:00;12.70;91.70
44607;DHT22;30315;46.072;14.474;2023-10-19T04:50:30;12.70;91.40
44607;DHT22;30315;46.072;14.474;2023-10-19T04:52:57;12.70;91.40
44607;DHT22;30315;46.072;14.474;2023-10-19T04:55:28;12.70;91.40
44607;DHT22;30315;46.072;14.474;2023-10-19T04:57:56;12.70;91.50
44607;DHT22;30315;46.072;14.474;2023-10-19T05:00:23;12.70;91.50
44607;DHT22;30315;46.072;14.474;2023-10-19T05:02:51;12.70;91.50
44607;DHT22;30315;46.072;14.474;2023-10-19T05:05:19;12.70;91.50
44607;DHT22;30315;46.072;14.474;2023-10-19T05:07:46;12.70;91.50
44607;DHT22;30315;46.072;14.474;2023-10-19T05:10:14;12.70;91.40
44607;DHT22;30315;46.072;14.474;2023-10-19T05:12:41;12.70;91.50
44607;DHT22;30315;46.072;14.474;2023-10-19T05:15:08;12.70;91.50
44607;DHT22;30315;46.072;14.474;2023-10-19T05:17:35;12.70;91.50
44607;DHT22;30315;46.072;14.474;2023-10-19T05:20:02;12.70;91.60
44607;DHT22;30315;46.072;14.474;2023-10-19T05:22:32;12.80;91.60
44607;DHT22;30315;46.072;14.474;2023-10-19T05:24:59;12.70;91.60
44607;DHT22;30315;46.072;14.474;2023-10-19T05:27:28;12.80;91.80
44607;DHT22;30315;46.072;14.474;2023-10-19T05:29:55;12.80;91.80
44607;DHT22;30315;46.072;14.474;2023-10-19T05:32:22;12.80;91.70
44607;DHT22;30315;46.072;14.474;2023-10-19T05:34:49;12.80;91.80
44607;DHT22;30315;46.072;14.474;2023-10-19T05:37:16;12.80;91.90
44607;DHT22;30315;46.072;14.474;2023-10-19T05:39:43;12.80;92.00
44607;DHT22;30315;46.072;14.474;2023-10-19T05:42:11;12.80;92.00
44607;DHT22;30315;46.072;14.474;2023-10-19T05:44:38;12.80;92.00
44607;DHT22;30315;46.072;14.474;2023-10-19T05:47:06;12.90;92.20
44607;DHT22;30315;46.072;14.474;2023-10-19T05:49:33;12.80;92.10
44607;DHT22;30315;46.072;14.474;2023-10-19T05:52:01;13.20;92.30
44607;DHT22;30315;46.072;14.474;2023-10-19T05:54:30;12.80;92.10
44607;DHT22;30315;46.072;14.474;2023-10-19T05:56:58;12.90;92.20
44607;DHT22;30315;46.072;14.474;2023-10-19T05:59:25;12.90;92.20
44607;DHT22;30315;46.072;14.474;2023-10-19T06:01:53;12.90;92.20
44607;DHT22;30315;46.072;14.474;2023-10-19T06:04:20;12.90;92.20
44607;DHT22;30315;46.072;14.474;2023-10-19T06:07:01;12.90;92.20
44607;DHT22;30315;46.072;14.474;2023-10-19T06:09:29;12.90;92.20
44607;DHT22;30315;46.072;14.474;2023-10-19T06:11:56;12.90;92.20
44607;DHT22;30315;46.072;14.474;2023-10-19T06:14:23;12.90;92.30
44607;DHT22;30315;46.072;14.474;2023-10-19T06:16:50;12.90;92.30
44607;DHT22;30315;46.072;14.474;2023-10-19T06:19:19;13.00;92.60
44607;DHT22;30315;46.072;14.474;2023-10-19T06:21:46;13.00;92.90
44607;DHT22;30315;46.072;14.474;2023-10-19T06:24:13;13.10;93.20
44607;DHT22;30315;46.072;14.474;2023-10-19T06:26:42;13.20;93.40
44607;DHT22;30315;46.072;14.474;2023-10-19T06:29:10;13.30;93.50
44607;DHT22;30315;46.072;14.474;2023-10-19T06:31:37;13.40;93.40
44607;DHT22;30315;46.072;14.474;2023-10-19T06:34:04;13.30;93.00
44607;DHT22;30315;46.072;14.474;2023-10-19T06:36:31;13.30;92.70
44607;DHT22;30315;46.072;14.474;2023-10-19T06:38:58;13.20;92.40
44607;DHT22;30315;46.072;14.474;2023-10-19T06:41:25;13.30;92.40
44607;DHT22;30315;46.072;14.474;2023-10-19T06:43:52;13.20;92.30
44607;DHT22;30315;46.072;14.474;2023-10-19T06:46:19;13.20;92.10
44607;DHT22;30315;46.072;14.474;2023-10-19T06:48:48;13.20;92.10
44607;DHT22;30315;46.072;14.474;2023-10-19T06:51:15;13.20;92.10
44607;DHT22;30315;46.072;14.474;2023-10-19T06:53:43;13.20;92.30
44607;DHT22;30315;46.072;14.474;2023-10-19T06:56:11;13.20;92.30
44607;DHT22;30315;46.072;14.474;2023-10-19T06:58:37;13.20;92.40
44607;DHT22;30315;46.072;14.474;2023-10-19T07:01:07;13.20;92.50
44607;DHT22;30315;46.072;14.474;2023-10-19T07:03:35;13.20;92.70
44607;DHT22;30315;46.072;14.474;2023-10-19T07:06:03;13.20;93.00
44607;DHT22;30315;46.072;14.474;2023-10-19T07:08:36;13.20;92.80
44607;DHT22;30315;46.072;14.474;2023-10-19T07:11:03;13.30;93.00
44607;DHT22;30315;46.072;14.474;2023-10-19T07:13:30;13.30;93.00
44607;DHT22;30315;46.072;14.474;2023-10-19T07:16:01;13.30;93.00
44607;DHT22;30315;46.072;14.474;2023-10-19T07:18:30;13.30;93.10
44607;DHT22;30315;46.072;14.474;2023-10-19T07:20:57;13.30;93.10
44607;DHT22;30315;46.072;14.474;2023-10-19T07:23:31;13.30;93.10
44607;DHT22;30315;46.072;14.474;2023-10-19T07:25:58;13.40;93.10
44607;DHT22;30315;46.072;14.474;2023-10-19T07:28:28;13.40;93.20
44607;DHT22;30315;46.072;14.474;2023-10-19T07:30:57;13.40;93.30
44607;DHT22;30315;46.072;14.474;2023-10-19T07:33:26;13.40;93.30
44607;DHT22;30315;46.072;14.474;2023-10-19T07:35:55;13.50;93.30
44607;DHT22;30315;46.072;14.474;2023-10-19T07:38:23;13.50;93.40
44607;DHT22;30315;46.072;14.474;2023-10-19T07:40:50;13.50;93.30
44607;DHT22;30315;46.072;14.474;2023-10-19T07:43:21;13.50;93.20
44607;DHT22;30315;46.072;14.474;2023-10-19T07:45:49;13.50;93.20
44607;DHT22;30315;46.072;14.474;2023-10-19T07:48:20;13.50;93.20
44607;DHT22;30315;46.072;14.474;2023-10-19T07:50:47;13.50;93.20
44607;DHT22;30315;46.072;14.474;2023-10-19T07:53:15;13.50;93.20
44607;DHT22;30315;46.072;14.474;2023-10-19T07:55:44;13.60;93.40
44607;DHT22;30315;46.072;14.474;2023-10-19T07:58:11;13.50;93.30
44607;DHT22;30315;46.072;14.474;2023-10-19T08:00:39;13.60;93.40
44607;DHT22;30315;46.072;14.474;2023-10-19T08:03:08;13.60;93.40
44607;DHT22;30315;46.072;14.474;2023-10-19T08:05:37;13.60;93.50
44607;DHT22;30315;46.072;14.474;2023-10-19T08:08:05;13.60;93.60
44607;DHT22;30315;46.072;14.474;2023-10-19T08:10:33;13.70;93.70
44607;DHT22;30315;46.072;14.474;2023-10-19T08:13:03;13.70;93.70
44607;DHT22;30315;46.072;14.474;2023-10-19T08:15:31;13.70;93.80
44607;DHT22;30315;46.072;14.474;2023-10-19T08:17:58;13.80;93.90
44607;DHT22;30315;46.072;14.474;2023-10-19T08:20:25;13.80;94.00
44607;DHT22;30315;46.072;14.474;2023-10-19T08:23:00;13.80;94.00
44607;DHT22;30315;46.072;14.474;2023-10-19T08:25:29;13.80;94.00
44607;DHT22;30315;46.072;14.474;2023-10-19T08:27:59;13.90;94.10
44607;DHT22;30315;46.072;14.474;2023-10-19T08:30:26;13.90;94.00
44607;DHT22;30315;46.072;14.474;2023-10-19T08:32:54;13.90;94.00
44607;DHT22;30315;46.072;14.474;2023-10-19T08:35:22;13.90;94.00
44607;DHT22;30315;46.072;14.474;2023-10-19T08:37:56;14.00;94.10
44607;DHT22;30315;46.072;14.474;2023-10-19T08:40:27;13.90;94.10
44607;DHT22;30315;46.072;14.474;2023-10-19T08:42:55;14.00;94.10
44607;DHT22;30315;46.072;14.474;2023-10-19T08:45:22;14.00;94.20
44607;DHT22;30315;46.072;14.474;2023-10-19T08:48:00;14.00;94.10
44607;DHT22;30315;46.072;14.474;2023-10-19T08:50:30;14.00;94.20
44607;DHT22;30315;46.072;14.474;2023-10-19T08:53:01;14.00;94.20
44607;DHT22;30315;46.072;14.474;2023-10-19T08:55:32;14.00;94.20
44607;DHT22;30315;46.072;14.474;2023-10-19T08:58:04;14.00;94.20
44607;DHT22;30315;46.072;14.474;2023-10-19T09:00:49;14.00;94.20
44607;DHT22;30315;46.072;14.474;2023-10-19T09:03:20;14.00;94.20
44607;DHT22;30315;46.072;14.474;2023-10-19T09:05:49;13.90;94.10
44607;DHT22;30315;46.072;14.474;2023-10-19T09:08:17;13.90;94.10
44607;DHT22;30315;46.072;14.474;2023-10-19T09:10:48;13.90;94.20
44607;DHT22;30315;46.072;14.474;2023-10-19T09:13:16;13.90;94.30
44607;DHT22;30315;46.072;14.474;2023-10-19T09:15:47;13.90;94.30
44607;DHT22;30315;46.072;14.474;2023-10-19T09:18:21;13.90;94.40
44607;DHT22;30315;46.072;14.474;2023-10-19T09:20:51;14.00;94.60
44607;DHT22;30315;46.072;14.474;2023-10-19T09:23:24;14.00;94.60
44607;DHT22;30315;46.072;14.474;2023-10-19T09:25:52;14.00;94.70
44607;DHT22;30315;46.072;14.474;2023-10-19T09:28:21;14.00;94.70
44607;DHT22;30315;46.072;14.474;2023-10-19T09:30:52;14.10;94.70
44607;DHT22;30315;46.072;14.474;2023-10-19T09:33:20;14.10;94.70
44607;DHT22;30315;46.072;14.474;2023-10-19T09:35:49;14.10;94.70
44607;DHT22;30315;46.072;14.474;2023-10-19T09:38:20;14.10;94.70
44607;DHT22;30315;46.072;14.474;2023-10-19T09:40:53;14.10;94.70
44607;DHT22;30315;46.072;14.474;2023-10-19T09:46:00;14.10;94.60
44607;DHT22;30315;46.072;14.474;2023-10-19T09:48:31;14.10;94.50
44607;DHT22;30315;46.072;14.474;2023-10-19T09:51:05;14.10;94.60
44607;DHT22;30315;46.072;14.474;2023-10-19T09:54:00;14.10;94.60
44607;DHT22;30315;46.072;14.474;2023-10-19T09:56:36;14.20;94.80
44607;DHT22;30315;46.072;14.474;2023-10-19T09:59:06;14.20;94.80
44607;DHT22;30315;46.072;14.474;2023-10-19T10:02:08;14.20;94.80
44607;DHT22;30315;46.072;14.474;2023-10-19T10:04:36;14.20;94.70
44607;DHT22;30315;46.072;14.474;2023-10-19T10:07:05;14.30;94.70
44607;DHT22;30315;46.072;14.474;2023-10-19T10:09:38;14.30;94.70
44607;DHT22;30315;46.072;14.474;2023-10-19T10:12:23;14.30;94.70
44607;DHT22;30315;46.072;14.474;2023-10-19T10:15:02;14.30;94.70
44607;DHT22;30315;46.072;14.474;2023-10-19T10:17:36;13.90;94.60
44607;DHT22;30315;46.072;14.474;2023-10-19T10:22:45;14.30;94.80
44607;DHT22;30315;46.072;14.474;2023-10-19T10:25:34;14.30;94.80
44607;DHT22;30315;46.072;14.474;2023-10-19T10:28:03;14.30;94.90
44607;DHT22;30315;46.072;14.474;2023-10-19T10:30:32;14.40;94.90
44607;DHT22;30315;46.072;14.474;2023-10-19T10:32:59;14.40;94.90
44607;DHT22;30315;46.072;14.474;2023-10-19T10:38:09;14.40;94.90
44607;DHT22;30315;46.072;14.474;2023-10-19T10:40:43;14.10;94.80
44607;DHT22;30315;46.072;14.474;2023-10-19T10:43:11;14.50;95.00
44607;DHT22;30315;46.072;14.474;2023-10-19T10:45:39;14.50;95.00
44607;DHT22;30315;46.072;14.474;2023-10-19T10:48:17;14.50;95.10
44607;DHT22;30315;46.072;14.474;2023-10-19T10:50:46;14.50;95.20
44607;DHT22;30315;46.072;14.474;2023-10-19T10:53:17;14.60;95.20
44607;DHT22;30315;46.072;14.474;2023-10-19T10:55:45;14.50;95.20
44607;DHT22;30315;46.072;14.474;2023-10-19T10:58:28;14.60;95.40
44607;DHT22;30315;46.072;14.474;2023-10-19T11:00:56;14.70;95.50
44607;DHT22;30315;46.072;14.474;2023-10-19T11:03:24;14.70;95.50
44607;DHT22;30315;46.072;14.474;2023-10-19T11:06:06;14.70;95.60
44607;DHT22;30315;46.072;14.474;2023-10-19T11:08:37;14.80;95.70
44607;DHT22;30315;46.072;14.474;2023-10-19T11:11:09;14.90;96.00
44607;DHT22;30315;46.072;14.474;2023-10-19T11:13:39;15.00;96.10
44607;DHT22;30315;46.072;14.474;2023-10-19T11:16:07;15.10;96.10
44607;DHT22;30315;46.072;14.474;2023-10-19T11:18:41;15.20;96.10
44607;DHT22;30315;46.072;14.474;2023-10-19T11:21:18;15.20;96.10
44607;DHT22;30315;46.072;14.474;2023-10-19T11:23:56;15.20;96.00
44607;DHT22;30315;46.072;14.474;2023-10-19T11:26:24;15.30;95.90
44607;DHT22;30315;46.072;14.474;2023-10-19T11:28:59;15.30;95.90
44607;DHT22;30315;46.072;14.474;2023-10-19T11:31:27;15.40;95.90
44607;DHT22;30315;46.072;14.474;2023-10-19T11:33:55;15.40;95.80
44607;DHT22;30315;46.072;14.474;2023-10-19T11:36:25;15.40;95.80
44607;DHT22;30315;46.072;14.474;2023-10-19T11:38:56;15.40;95.70
44607;DHT22;30315;46.072;14.474;2023-10-19T11:41:27;15.40;95.60
44607;DHT22;30315;46.072;14.474;2023-10-19T11:43:54;15.40;95.70
44607;DHT22;30315;46.072;14.474;2023-10-19T11:46:23;15.40;95.70
44607;DHT22;30315;46.072;14.474;2023-10-19T11:48:55;15.40;95.60
44607;DHT22;30315;46.072;14.474;2023-10-19T11:51:22;15.40;95.80
44607;DHT22;30315;46.072;14.474;2023-10-19T11:53:52;15.40;95.80
44607;DHT22;30315;46.072;14.474;2023-10-19T11:56:19;15.40;95.90
44607;DHT22;30315;46.072;14.474;2023-10-19T11:58:47;15.40;95.90
44607;DHT22;30315;46.072;14.474;2023-10-19T12:01:15;15.40;95.90
44607;DHT22;30315;46.072;14.474;2023-10-19T12:03:45;15.70;96.00
44607;DHT22;30315;46.072;14.474;2023-10-19T12:06:16;15.40;96.00
44607;DHT22;30315;46.072;14.474;2023-10-19T12:08:46;15.50;96.10
44607;DHT22;30315;46.072;14.474;2023-10-19T12:11:14;15.40;96.10
44607;DHT22;30315;46.072;14.474;2023-10-19T12:13:46;15.40;96.20
44607;DHT22;30315;46.072;14.474;2023-10-19T12:16:15;15.50;96.40
44607;DHT22;30315;46.072;14.474;2023-10-19T12:18:47;15.50;96.40
44607;DHT22;30315;46.072;14.474;2023-10-19T12:21:17;15.40;96.40
44607;DHT22;30315;46.072;14.474;2023-10-19T12:23:46;15.50;96.50
44607;DHT22;30315;46.072;14.474;2023-10-19T12:26:23;15.50;96.60
44607;DHT22;30315;46.072;14.474;2023-10-19T12:28:50;15.50;96.60
44607;DHT22;30315;46.072;14.474;2023-10-19T12:31:17;15.50;96.70
44607;DHT22;30315;46.072;14.474;2023-10-19T12:33:46;15.40;96.70
44607;DHT22;30315;46.072;14.474;2023-10-19T12:36:13;15.50;96.80
44607;DHT22;30315;46.072;14.474;2023-10-19T12:38:55;15.50;96.90
44607;DHT22;30315;46.072;14.474;2023-10-19T12:41:22;15.50;96.90
44607;DHT22;30315;46.072;14.474;2023-10-19T12:43:50;15.50;97.00
44607;DHT22;30315;46.072;14.474;2023-10-19T12:46:24;15.50;97.00
44607;DHT22;30315;46.072;14.474;2023-10-19T12:48:57;15.50;97.10
44607;DHT22;30315;46.072;14.474;2023-10-19T12:51:25;15.50;97.10
44607;DHT22;30315;46.072;14.474;2023-10-19T12:53:58;15.50;97.20
44607;DHT22;30315;46.072;14.474;2023-10-19T12:56:25;15.50;97.50
44607;DHT22;30315;46.072;14.474;2023-10-19T12:59:00;15.60;97.20
44607;DHT22;30315;46.072;14.474;2023-10-19T13:01:27;15.60;97.20
44607;DHT22;30315;46.072;14.474;2023-10-19T13:03:55;15.60;97.30
44607;DHT22;30315;46.072;14.474;2023-10-19T13:06:23;15.70;97.40
44607;DHT22;30315;46.072;14.474;2023-10-19T13:08:56;15.60;97.30
44607;DHT22;30315;46.072;14.474;2023-10-19T13:11:31;15.60;97.40
44607;DHT22;30315;46.072;14.474;2023-10-19T13:14:05;15.70;97.60
44607;DHT22;30315;46.072;14.474;2023-10-19T13:16:33;15.70;97.70
44607;DHT22;30315;46.072;14.474;2023-10-19T13:19:02;15.70;97.80
44607;DHT22;30315;46.072;14.474;2023-10-19T13:21:40;15.80;97.90
44607;DHT22;30315;46.072;14.474;2023-10-19T13:24:09;15.80;98.00
44607;DHT22;30315;46.072;14.474;2023-10-19T13:31:22;15.90;98.10
44607;DHT22;30315;46.072;14.474;2023-10-19T13:34:01;15.90;98.30
44607;DHT22;30315;46.072;14.474;2023-10-19T13:36:30;16.00;98.40
44607;DHT22;30315;46.072;14.474;2023-10-19T13:39:02;16.00;98.40
44607;DHT22;30315;46.072;14.474;2023-10-19T13:41:36;16.00;98.40
44607;DHT22;30315;46.072;14.474;2023-10-19T13:44:03;16.10;98.40
44607;DHT22;30315;46.072;14.474;2023-10-19T13:46:32;16.10;98.40
44607;DHT22;30315;46.072;14.474;2023-10-19T13:49:11;16.10;98.20
44607;DHT22;30315;46.072;14.474;2023-10-19T13:51:49;16.00;98.20
44607;DHT22;30315;46.072;14.474;2023-10-19T13:54:17;16.20;98.50
44607;DHT22;30315;46.072;14.474;2023-10-19T13:57:16;16.20;98.60
44607;DHT22;30315;46.072;14.474;2023-10-19T14:00:57;16.30;98.70
44607;DHT22;30315;46.072;14.474;2023-10-19T14:03:25;16.40;98.60
44607;DHT22;30315;46.072;14.474;2023-10-19T14:05:52;16.50;98.50
44607;DHT22;30315;46.072;14.474;2023-10-19T14:08:23;16.60;98.40
44607;DHT22;30315;46.072;14.474;2023-10-19T14:10:53;16.50;98.20
44607;DHT22;30315;46.072;14.474;2023-10-19T14:13:20;16.60;98.10
44607;DHT22;30315;46.072;14.474;2023-10-19T14:15:47;16.60;98.00
44607;DHT22;30315;46.072;14.474;2023-10-19T14:18:14;16.60;98.00
44607;DHT22;30315;46.072;14.474;2023-10-19T14:20:42;16.60;98.10
44607;DHT22;30315;46.072;14.474;2023-10-19T14:23:14;16.60;98.20
44607;DHT22;30315;46.072;14.474;2023-10-19T14:25:45;16.70;98.20
44607;DHT22;30315;46.072;14.474;2023-10-19T14:28:15;16.60;98.20
44607;DHT22;30315;46.072;14.474;2023-10-19T14:30:42;16.60;98.30
44607;DHT22;30315;46.072;14.474;2023-10-19T14:33:10;16.50;98.30
44607;DHT22;30315;46.072;14.474;2023-10-19T14:35:38;16.40;98.30
44607;DHT22;30315;46.072;14.474;2023-10-19T14:38:11;16.60;98.50
44607;DHT22;30315;46.072;14.474;2023-10-19T14:43:34;16.50;98.60
44607;DHT22;30315;46.072;14.474;2023-10-19T14:46:01;16.70;98.80
44607;DHT22;30315;46.072;14.474;2023-10-19T14:48:28;16.60;98.90
44607;DHT22;30315;46.072;14.474;2023-10-19T14:50:56;16.60;99.00
44607;DHT22;30315;46.072;14.474;2023-10-19T14:53:24;16.70;99.00
44607;DHT22;30315;46.072;14.474;2023-10-19T14:55:54;16.70;99.10
44607;DHT22;30315;46.072;14.474;2023-10-19T14:58:24;16.60;99.10
44607;DHT22;30315;46.072;14.474;2023-10-19T15:00:53;16.60;99.10
44607;DHT22;30315;46.072;14.474;2023-10-19T15:03:23;16.60;99.20
44607;DHT22;30315;46.072;14.474;2023-10-19T15:05:56;16.60;99.20
44607;DHT22;30315;46.072;14.474;2023-10-19T15:08:25;16.60;99.20
44607;DHT22;30315;46.072;14.474;2023-10-19T15:10:55;16.60;99.20
44607;DHT22;30315;46.072;14.474;2023-10-19T15:13:23;16.60;99.30
44607;DHT22;30315;46.072;14.474;2023-10-19T15:15:50;16.50;99.20
44607;DHT22;30315;46.072;14.474;2023-10-19T15:18:18;16.50;99.30
44607;DHT22;30315;46.072;14.474;2023-10-19T15:20:45;16.50;99.30
44607;DHT22;30315;46.072;14.474;2023-10-19T15:23:13;16.50;99.40
44607;DHT22;30315;46.072;14.474;2023-10-19T15:25:40;16.40;99.40
44607;DHT22;30315;46.072;14.474;2023-10-19T15:28:07;16.50;99.50
44607;DHT22;30315;46.072;14.474;2023-10-19T15:30:36;16.40;99.50
44607;DHT22;30315;46.072;14.474;2023-10-19T15:33:04;16.40;99.50
44607;DHT22;30315;46.072;14.474;2023-10-19T15:35:31;16.50;99.50
44607;DHT22;30315;46.072;14.474;2023-10-19T15:37:59;16.50;99.50
44607;DHT22;30315;46.072;14.474;2023-10-19T15:40:26;16.50;99.50
44607;DHT22;30315;46.072;14.474;2023-10-19T15:42:53;16.40;99.40
44607;DHT22;30315;46.072;14.474;2023-10-19T15:45:22;16.40;99.40
44607;DHT22;30315;46.072;14.474;2023-10-19T15:47:52;16.50;99.40
44607;DHT22;30315;46.072;14.474;2023-10-19T15:50:21;16.40;99.40
44607;DHT22;30315;46.072;14.474;2023-10-19T15:52:48;16.50;99.50
44607;DHT22;30315;46.072;14.474;2023-10-19T15:55:21;16.40;99.40